createdAt,value
2022-09-11T00:00:50.067Z,21.60
2022-09-11T00:03:18.229Z,24.20
2022-09-11T00:05:44.898Z,23.80
2022-09-11T00:08:14.440Z,24.70
2022-09-11T00:10:43.026Z,24.67
2022-09-11T00:13:15.397Z,24.30
2022-09-11T00:15:43.982Z,25.47
2022-09-11T00:18:13.353Z,25.60
2022-09-11T00:20:39.799Z,25.20
2022-09-11T00:23:06.162Z,27.67
2022-09-11T00:25:36.371Z,30.63
2022-09-11T00:28:03.173Z,26.43
2022-09-11T00:30:29.826Z,28.47
2022-09-11T00:32:56.295Z,28.40
2022-09-11T00:35:22.848Z,28.80
2022-09-11T00:37:49.235Z,28.40
2022-09-11T00:40:17.231Z,26.70
2022-09-11T00:42:43.940Z,29.20
2022-09-11T00:45:36.568Z,27.30
2022-09-11T00:48:04.004Z,29.70
2022-09-11T00:50:32.618Z,29.10
2022-09-11T00:53:07.918Z,27.10
2022-09-11T00:55:37.829Z,30.90
2022-09-11T00:58:10.550Z,30.00
2022-09-11T01:00:39.547Z,28.40
2022-09-11T01:03:05.984Z,28.90
2022-09-11T01:05:35.251Z,30.10
2022-09-11T01:08:03.688Z,31.27
2022-09-11T01:10:41.857Z,30.60
2022-09-11T01:13:15.625Z,31.00
2022-09-11T01:15:53.641Z,31.03
2022-09-11T01:18:32.236Z,29.30
2022-09-11T01:21:12.474Z,31.70
2022-09-11T01:23:55.089Z,31.70
2022-09-11T01:26:37.534Z,31.80
2022-09-11T01:29:27.557Z,33.50
2022-09-11T01:32:04.607Z,31.40
2022-09-11T01:34:44.270Z,33.33
2022-09-11T01:37:19.019Z,29.67
2022-09-11T01:39:53.838Z,31.27
2022-09-11T01:42:23.030Z,32.50
2022-09-11T01:44:59.911Z,30.77
2022-09-11T01:47:28.674Z,31.80
2022-09-11T01:50:15.315Z,31.80
2022-09-11T01:52:53.782Z,31.17
2022-09-11T01:55:29.340Z,33.50
2022-09-11T01:58:07.549Z,32.40
2022-09-11T02:00:35.430Z,32.97
2022-09-11T02:03:30.578Z,33.60
2022-09-11T02:06:04.122Z,31.80
2022-09-11T02:08:39.497Z,33.70
2022-09-11T02:11:09.118Z,31.97
2022-09-11T02:14:10.399Z,32.93
2022-09-11T02:16:49.954Z,34.33
2022-09-11T02:19:19.231Z,35.60
2022-09-11T02:21:47.766Z,36.13
2022-09-11T02:24:15.934Z,35.50
2022-09-11T02:26:47.648Z,39.33
2022-09-11T02:29:15.103Z,37.97
2022-09-11T02:31:42.538Z,37.80
2022-09-11T02:34:12.377Z,40.43
2022-09-11T02:37:14.452Z,40.83
2022-09-11T02:39:53.616Z,41.10
2022-09-11T02:42:38.543Z,41.40
2022-09-11T02:45:47.892Z,43.73
2022-09-11T02:48:32.984Z,43.20
2022-09-11T02:51:20.555Z,43.20
2022-09-11T02:54:01.749Z,45.03
2022-09-11T02:57:09.607Z,43.17
2022-09-11T02:59:42.314Z,40.67
2022-09-11T03:02:15.375Z,44.07
2022-09-11T03:04:45.466Z,43.77
2022-09-11T03:07:11.826Z,42.43
2022-09-11T03:09:38.190Z,42.70
2022-09-11T03:12:05.069Z,43.10
2022-09-11T03:14:31.571Z,43.17
2022-09-11T03:16:58.582Z,43.77
2022-09-11T03:19:25.008Z,45.83
2022-09-11T03:21:51.473Z,46.07
2022-09-11T03:24:17.874Z,44.23
2022-09-11T03:26:44.333Z,44.30
2022-09-11T03:29:10.762Z,45.07
2022-09-11T03:31:39.269Z,49.10
2022-09-11T03:34:06.386Z,47.50
2022-09-11T03:36:34.314Z,48.27
2022-09-11T03:39:01.435Z,47.53
2022-09-11T03:41:28.030Z,47.17
2022-09-11T03:43:54.366Z,47.47
2022-09-11T03:46:20.710Z,47.00
2022-09-11T03:48:47.173Z,48.67
2022-09-11T03:51:14.842Z,50.83
2022-09-11T03:53:42.529Z,51.80
2022-09-11T03:56:08.925Z,52.70
2022-09-11T03:58:35.443Z,50.80
2022-09-11T04:01:01.818Z,51.13
2022-09-11T04:03:28.239Z,50.80
2022-09-11T04:06:00.593Z,54.87
2022-09-11T04:08:27.565Z,55.03
2022-09-11T04:10:58.392Z,53.03
2022-09-11T04:13:32.722Z,53.63
2022-09-11T04:16:03.017Z,54.07
2022-09-11T04:18:31.146Z,55.20
2022-09-11T04:20:57.467Z,53.90
2022-09-11T04:23:23.967Z,53.17
2022-09-11T04:25:50.402Z,53.37
2022-09-11T04:28:17.069Z,55.50
2022-09-11T04:30:43.481Z,51.47
2022-09-11T04:33:09.818Z,51.40
2022-09-11T04:35:38.823Z,53.77
2022-09-11T04:38:05.576Z,50.50
2022-09-11T04:40:33.862Z,50.97
2022-09-11T04:43:01.373Z,51.47
2022-09-11T04:45:32.888Z,54.30
2022-09-11T04:48:00.735Z,53.43
2022-09-11T04:50:28.645Z,49.93
2022-09-11T04:52:55.138Z,50.50
2022-09-11T04:55:21.489Z,48.70
2022-09-11T04:57:47.903Z,50.63
2022-09-11T05:00:14.947Z,50.03
2022-09-11T05:02:41.303Z,50.57
2022-09-11T05:05:09.198Z,50.03
2022-09-11T05:07:35.954Z,50.93
2022-09-11T05:10:03.100Z,49.70
2022-09-11T05:12:29.774Z,52.93
2022-09-11T05:14:56.106Z,53.63
2022-09-11T05:17:22.470Z,52.60
2022-09-11T05:19:49.207Z,55.83
2022-09-11T05:22:15.831Z,49.70
2022-09-11T05:24:42.187Z,50.80
2022-09-11T05:27:09.633Z,53.50
2022-09-11T05:29:35.972Z,51.63
2022-09-11T05:32:03.466Z,51.57
2022-09-11T05:34:29.868Z,54.53
2022-09-11T05:36:57.338Z,53.40
2022-09-11T05:39:24.390Z,55.10
2022-09-11T05:41:51.916Z,54.17
2022-09-11T05:44:18.537Z,54.70
2022-09-11T05:46:45.237Z,56.03
2022-09-11T05:49:11.769Z,54.37
2022-09-11T05:51:40.120Z,59.37
2022-09-11T05:54:06.557Z,60.20
2022-09-11T05:56:33.098Z,58.50
2022-09-11T05:58:59.450Z,57.73
2022-09-11T06:01:27.626Z,59.97
2022-09-11T06:03:54.737Z,60.77
2022-09-11T06:06:22.970Z,61.00
2022-09-11T06:08:51.708Z,63.27
2022-09-11T06:11:20.177Z,62.07
2022-09-11T06:13:47.729Z,66.77
2022-09-11T06:16:19.389Z,63.93
2022-09-11T06:18:50.433Z,60.97
2022-09-11T06:21:19.877Z,64.70
2022-09-11T06:23:47.883Z,65.33
2022-09-11T06:26:17.187Z,66.47
2022-09-11T06:28:43.882Z,63.97
2022-09-11T06:31:13.326Z,64.10
2022-09-11T06:33:40.921Z,63.33
2022-09-11T06:36:11.513Z,63.17
2022-09-11T06:38:38.529Z,64.07
2022-09-11T06:41:06.945Z,64.60
2022-09-11T06:43:34.032Z,65.87
2022-09-11T06:46:13.013Z,66.30
2022-09-11T06:48:40.444Z,65.13
2022-09-11T06:51:11.237Z,62.90
2022-09-11T06:53:38.544Z,64.27
2022-09-11T06:56:06.856Z,62.80
2022-09-11T06:58:33.574Z,64.83
2022-09-11T07:01:03.553Z,60.60
2022-09-11T07:03:30.127Z,63.90
2022-09-11T07:05:56.477Z,64.07
2022-09-11T07:08:24.999Z,57.97
2022-09-11T07:10:51.578Z,59.00
2022-09-11T07:13:17.893Z,58.33
2022-09-11T07:15:44.253Z,57.43
2022-09-11T07:18:11.393Z,57.70
2022-09-11T07:20:39.114Z,58.77
2022-09-11T07:23:05.442Z,55.17
2022-09-11T07:25:31.766Z,57.97
2022-09-11T07:27:58.207Z,56.63
2022-09-11T07:30:24.667Z,57.60
2022-09-11T07:32:51.010Z,57.70
2022-09-11T07:35:21.538Z,58.93
2022-09-11T07:37:50.820Z,58.63
2022-09-11T07:40:17.559Z,56.50
2022-09-11T07:42:43.962Z,56.70
2022-09-11T07:45:10.809Z,55.43
2022-09-11T07:47:38.486Z,55.90
2022-09-11T07:50:05.652Z,55.77
2022-09-11T07:52:32.287Z,52.23
2022-09-11T07:54:58.604Z,46.13
2022-09-11T07:57:24.924Z,43.47
2022-09-11T07:59:51.598Z,43.90
2022-09-11T08:02:18.085Z,41.90
2022-09-11T08:04:44.850Z,41.80
2022-09-11T08:07:11.725Z,40.70
2022-09-11T08:09:38.199Z,40.93
2022-09-11T08:12:05.230Z,43.37
2022-09-11T08:14:31.569Z,44.07
2022-09-11T08:16:57.976Z,41.10
2022-09-11T08:19:24.692Z,38.80
2022-09-11T08:21:52.909Z,40.27
2022-09-11T08:24:24.333Z,36.67
2022-09-11T08:26:50.768Z,39.77
2022-09-11T08:29:18.168Z,39.40
2022-09-11T08:31:45.304Z,40.43
2022-09-11T08:34:11.750Z,37.97
2022-09-11T08:36:38.299Z,37.47
2022-09-11T08:39:05.401Z,36.17
2022-09-11T08:42:00.136Z,37.20
2022-09-11T08:44:39.368Z,38.50
2022-09-11T08:47:10.001Z,35.47
2022-09-11T08:49:46.167Z,38.37
2022-09-11T08:52:14.862Z,37.20
2022-09-11T08:54:43.256Z,36.90
2022-09-11T08:57:35.349Z,34.37
2022-09-11T09:00:05.316Z,35.77
2022-09-11T09:02:53.809Z,35.90
2022-09-11T09:05:46.457Z,35.90
2022-09-11T09:08:30.318Z,37.10
2022-09-11T09:11:09.943Z,38.07
2022-09-11T09:14:09.438Z,36.93
2022-09-11T09:16:59.037Z,38.47
2022-09-11T09:20:01.021Z,38.90
2022-09-11T09:22:33.725Z,38.10
2022-09-11T09:25:04.968Z,40.70
2022-09-11T09:27:37.345Z,41.23
2022-09-11T09:30:07.369Z,41.33
2022-09-11T09:32:43.768Z,40.60
2022-09-11T09:35:19.410Z,42.30
2022-09-11T09:37:45.835Z,44.03
2022-09-11T09:40:18.573Z,42.43
2022-09-11T09:43:19.318Z,42.10
2022-09-11T09:46:00.725Z,42.60
2022-09-11T09:48:33.608Z,43.83
2022-09-11T09:51:02.210Z,43.77
2022-09-11T09:53:38.065Z,45.07
2022-09-11T09:56:05.563Z,42.07
2022-09-11T09:58:42.719Z,44.03
2022-09-11T10:01:44.757Z,44.40
2022-09-11T10:04:26.892Z,43.03
2022-09-11T10:07:06.883Z,46.03
2022-09-11T10:09:33.287Z,44.07
2022-09-11T10:12:03.502Z,46.67
2022-09-11T10:14:52.164Z,47.40
2022-09-11T10:17:38.431Z,46.97
2022-09-11T10:20:32.871Z,48.17
2022-09-11T10:23:23.248Z,45.93
2022-09-11T10:25:49.913Z,46.17
2022-09-11T10:28:21.094Z,47.80
2022-09-11T10:31:02.350Z,46.40
2022-09-11T10:33:31.450Z,46.17
2022-09-11T10:36:01.592Z,45.57
2022-09-11T10:38:44.747Z,44.00
2022-09-11T10:41:14.385Z,41.80
2022-09-11T10:43:52.928Z,41.17
2022-09-11T10:46:19.199Z,41.13
2022-09-11T10:48:56.843Z,37.17
2022-09-11T10:51:26.321Z,35.60
2022-09-11T10:54:21.478Z,37.60
2022-09-11T10:57:05.395Z,35.53
2022-09-11T10:59:46.572Z,35.03
2022-09-11T11:02:19.962Z,35.17
2022-09-11T11:04:47.162Z,36.90
2022-09-11T11:07:34.389Z,36.17
2022-09-11T11:10:16.246Z,36.20
2022-09-11T11:13:11.041Z,38.20
2022-09-11T11:15:46.006Z,35.40
2022-09-11T11:18:28.936Z,35.73
2022-09-11T11:20:59.036Z,36.13
2022-09-11T11:23:50.757Z,36.20
2022-09-11T11:26:42.447Z,37.47
2022-09-11T11:29:30.120Z,37.53
2022-09-11T11:32:18.349Z,39.10
2022-09-11T11:35:06.814Z,36.70
2022-09-11T11:37:36.037Z,36.90
2022-09-11T11:40:05.957Z,35.20
2022-09-11T11:42:41.251Z,36.13
2022-09-11T11:45:25.029Z,36.77
2022-09-11T11:47:54.517Z,37.50
2022-09-11T11:50:36.290Z,35.50
2022-09-11T11:53:35.224Z,32.90
2022-09-11T11:56:16.726Z,32.97
2022-09-11T11:58:56.045Z,35.57
2022-09-11T12:01:29.588Z,33.57
2022-09-11T12:04:13.852Z,36.13
2022-09-11T12:06:40.158Z,32.40
2022-09-11T12:09:09.856Z,36.67
2022-09-11T12:11:37.375Z,33.90
2022-09-11T12:14:04.931Z,34.73
2022-09-11T12:16:34.091Z,34.20
2022-09-11T12:19:04.702Z,35.30
2022-09-11T12:21:31.666Z,35.20
2022-09-11T12:23:57.993Z,36.50
2022-09-11T12:26:26.047Z,36.33
2022-09-11T12:29:14.523Z,34.67
2022-09-11T12:31:49.876Z,35.00
2022-09-11T12:34:18.166Z,32.37
2022-09-11T12:36:54.034Z,28.33
2022-09-11T12:39:37.990Z,25.63
2022-09-11T12:42:25.768Z,24.00
2022-09-11T12:44:52.166Z,24.90
2022-09-11T12:47:25.245Z,21.80
2022-09-11T12:50:07.001Z,20.80
2022-09-11T12:52:45.405Z,21.10
2022-09-11T12:55:33.758Z,18.07
2022-09-11T12:58:47.726Z,17.90
2022-09-11T13:01:24.779Z,17.60
2022-09-11T13:04:03.399Z,15.73
2022-09-11T13:06:54.791Z,15.37
2022-09-11T13:09:22.981Z,17.17
2022-09-11T13:11:52.271Z,20.67
2022-09-11T13:14:28.058Z,18.97
2022-09-11T13:17:04.758Z,20.50
2022-09-11T13:19:33.921Z,17.63
2022-09-11T13:22:00.340Z,20.33
2022-09-11T13:24:35.809Z,19.83
2022-09-11T13:27:07.355Z,18.90
2022-09-11T13:29:37.358Z,18.20
2022-09-11T13:32:14.507Z,18.50
2022-09-11T13:34:52.661Z,18.10
2022-09-11T13:37:42.421Z,15.90
2022-09-11T13:40:19.611Z,15.50
2022-09-11T13:42:46.469Z,16.27
2022-09-11T13:45:18.821Z,16.30
2022-09-11T13:47:45.479Z,17.70
2022-09-11T13:50:15.269Z,16.20
2022-09-11T13:52:43.665Z,16.53
2022-09-11T13:55:19.151Z,16.00
2022-09-11T13:57:58.451Z,16.60
2022-09-11T14:00:45.958Z,15.97
2022-09-11T14:03:16.141Z,16.53
2022-09-11T14:05:50.223Z,16.50
2022-09-11T14:08:35.128Z,16.27
2022-09-11T14:11:21.087Z,15.60
2022-09-11T14:14:08.360Z,16.63
2022-09-11T14:16:45.190Z,14.50
2022-09-11T14:19:19.173Z,14.70
2022-09-11T14:21:48.229Z,13.70
2022-09-11T14:24:32.844Z,13.33
2022-09-11T14:27:04.861Z,14.20
2022-09-11T14:29:36.122Z,13.03
2022-09-11T14:32:37.866Z,14.87
2022-09-11T14:35:07.174Z,14.13
2022-09-11T14:37:40.167Z,16.10
2022-09-11T14:40:17.433Z,14.83
2022-09-11T14:42:45.212Z,15.13
2022-09-11T14:45:18.917Z,14.50
2022-09-11T14:47:45.258Z,15.00
2022-09-11T14:50:12.470Z,14.90
2022-09-11T14:52:41.084Z,14.87
2022-09-11T14:55:08.430Z,13.40
2022-09-11T14:57:35.051Z,13.80
2022-09-11T15:00:01.914Z,14.70
2022-09-11T15:02:29.451Z,14.40
2022-09-11T15:04:58.077Z,14.60
2022-09-11T15:07:25.748Z,13.40
2022-09-11T15:09:53.410Z,13.10
2022-09-11T15:12:20.889Z,14.30
2022-09-11T15:15:03.118Z,14.70
2022-09-11T15:17:33.862Z,14.20
2022-09-11T15:20:00.704Z,14.43
2022-09-11T15:22:27.790Z,14.13
2022-09-11T15:24:56.357Z,14.40
2022-09-11T15:27:24.982Z,15.20
2022-09-11T15:29:51.689Z,14.97
2022-09-11T15:32:18.094Z,15.13
2022-09-11T15:34:45.322Z,14.80
2022-09-11T15:37:12.213Z,14.80
2022-09-11T15:39:39.009Z,15.23
2022-09-11T15:42:07.311Z,15.63
2022-09-11T15:44:35.761Z,14.80
2022-09-11T15:47:04.044Z,14.50
2022-09-11T15:49:31.621Z,15.27
2022-09-11T15:51:59.576Z,14.17
2022-09-11T15:54:26.839Z,14.57
2022-09-11T15:56:53.446Z,14.90
2022-09-11T15:59:20.343Z,14.17
2022-09-11T16:01:46.856Z,14.73
2022-09-11T16:04:17.337Z,14.07
2022-09-11T16:06:45.812Z,14.87
2022-09-11T16:09:23.907Z,14.80
2022-09-11T16:11:50.735Z,14.47
2022-09-11T16:14:38.289Z,13.60
2022-09-11T16:17:06.522Z,13.63
2022-09-11T16:19:34.141Z,14.07
2022-09-11T16:22:02.298Z,15.10
2022-09-11T16:24:31.034Z,14.63
2022-09-11T16:26:57.529Z,13.60
2022-09-11T16:29:44.094Z,13.33
2022-09-11T16:32:27.799Z,13.30
2022-09-11T16:34:55.106Z,14.60
2022-09-11T16:37:21.465Z,16.03
2022-09-11T16:39:49.755Z,14.20
2022-09-11T16:42:16.377Z,18.27
2022-09-11T16:44:42.759Z,14.67
2022-09-11T16:47:09.706Z,14.70
2022-09-11T16:49:50.357Z,17.73
2022-09-11T16:52:22.418Z,32.90
2022-09-11T16:54:49.117Z,26.70
2022-09-11T16:57:15.574Z,22.57
2022-09-11T16:59:41.997Z,17.73
2022-09-11T17:02:09.663Z,15.13
2022-09-11T17:04:36.030Z,16.50
2022-09-11T17:07:02.470Z,16.10
2022-09-11T17:09:28.848Z,14.93
2022-09-11T17:11:55.224Z,13.77
2022-09-11T17:14:21.601Z,15.80
2022-09-11T17:16:48.110Z,16.00
2022-09-11T17:19:14.606Z,16.60
2022-09-11T17:21:41.107Z,16.27
2022-09-11T17:24:08.051Z,16.13
2022-09-11T17:26:34.958Z,17.60
2022-09-11T17:29:03.346Z,16.90
2022-09-11T17:31:30.112Z,17.40
2022-09-11T17:33:56.591Z,18.90
2022-09-11T17:36:24.597Z,18.90
2022-09-11T17:38:52.546Z,18.90
2022-09-11T17:41:20.882Z,17.70
2022-09-11T17:43:48.225Z,18.73
2022-09-11T17:46:18.074Z,18.47
2022-09-11T17:48:45.726Z,19.70
2022-09-11T17:51:21.906Z,18.13
2022-09-11T17:53:51.106Z,17.73
2022-09-11T17:56:20.635Z,18.60
2022-09-11T17:58:55.711Z,17.80
2022-09-11T18:01:22.941Z,18.80
2022-09-11T18:03:53.942Z,18.90
2022-09-11T18:06:25.986Z,18.53
2022-09-11T18:08:54.362Z,19.23
2022-09-11T18:11:20.771Z,18.87
2022-09-11T18:13:47.130Z,18.43
2022-09-11T18:16:13.717Z,18.97
2022-09-11T18:18:40.135Z,21.23
2022-09-11T18:21:09.002Z,21.63
2022-09-11T18:23:44.624Z,20.80
2022-09-11T18:26:19.896Z,23.60
2022-09-11T18:28:46.819Z,21.90
2022-09-11T18:31:13.217Z,21.23
2022-09-11T18:33:39.723Z,21.63
2022-09-11T18:36:10.183Z,21.40
2022-09-11T18:38:37.444Z,22.13
2022-09-11T18:41:04.433Z,24.77
2022-09-11T18:43:30.799Z,24.00
2022-09-11T18:46:02.728Z,23.17
2022-09-11T18:48:29.053Z,23.23
2022-09-11T18:50:55.506Z,23.57
2022-09-11T18:53:22.180Z,23.73
2022-09-11T18:55:57.529Z,23.50
2022-09-11T18:58:24.448Z,25.33
2022-09-11T19:00:51.157Z,23.67
2022-09-11T19:03:21.234Z,24.93
2022-09-11T19:05:48.139Z,24.10
2022-09-11T19:08:14.520Z,25.07
2022-09-11T19:10:40.927Z,24.70
2022-09-11T19:13:07.239Z,25.47
2022-09-11T19:15:33.696Z,25.07
2022-09-11T19:18:01.326Z,25.03
2022-09-11T19:20:27.685Z,26.73
2022-09-11T19:22:54.852Z,26.03
2022-09-11T19:25:21.245Z,26.30
2022-09-11T19:27:47.593Z,26.30
2022-09-11T19:30:16.147Z,26.67
2022-09-11T19:32:42.483Z,27.67
2022-09-11T19:35:08.813Z,27.17
2022-09-11T19:37:35.153Z,27.87
2022-09-11T19:40:01.795Z,29.10
2022-09-11T19:42:29.145Z,26.77
2022-09-11T19:44:56.399Z,27.70
2022-09-11T19:47:24.767Z,28.87
2022-09-11T19:49:51.571Z,27.93
2022-09-11T19:52:17.898Z,29.50
2022-09-11T19:54:44.249Z,27.20
2022-09-11T19:57:10.641Z,27.57
2022-09-11T19:59:37.967Z,26.83
2022-09-11T20:02:05.538Z,28.40
2022-09-11T20:04:32.642Z,31.77
2022-09-11T20:07:00.392Z,29.60
2022-09-11T20:09:31.254Z,28.33
2022-09-11T20:12:00.477Z,30.40
2022-09-11T20:14:27.266Z,30.20
2022-09-11T20:16:53.733Z,30.50
2022-09-11T20:19:20.541Z,29.00
2022-09-11T20:21:46.930Z,27.30
2022-09-11T20:24:14.810Z,27.30
2022-09-11T20:26:41.153Z,29.73
2022-09-11T20:29:11.863Z,29.17
2022-09-11T20:31:46.927Z,28.63
2022-09-11T20:34:15.546Z,28.80
2022-09-11T20:36:41.901Z,30.37
2022-09-11T20:39:11.566Z,28.47
2022-09-11T20:41:37.941Z,29.17
2022-09-11T20:44:04.582Z,29.23
2022-09-11T20:46:31.301Z,28.70
2022-09-11T20:48:58.071Z,29.27
2022-09-11T20:51:24.890Z,28.77
2022-09-11T20:53:51.269Z,28.87
2022-09-11T20:56:20.718Z,30.53
2022-09-11T20:58:47.208Z,30.63
2022-09-11T21:01:17.405Z,30.53
2022-09-11T21:03:53.786Z,30.10
2022-09-11T21:06:25.557Z,30.10
2022-09-11T21:08:57.727Z,30.33
2022-09-11T21:11:25.818Z,29.20
2022-09-11T21:13:52.570Z,30.70
2022-09-11T21:16:20.139Z,30.37
2022-09-11T21:18:52.197Z,30.53
2022-09-11T21:21:19.694Z,29.67
2022-09-11T21:23:46.197Z,30.67
2022-09-11T21:26:15.489Z,30.20
2022-09-11T21:28:41.973Z,28.17
2022-09-11T21:31:09.080Z,29.53
2022-09-11T21:33:36.526Z,28.90
2022-09-11T21:36:03.911Z,29.03
2022-09-11T21:38:30.401Z,27.87
2022-09-11T21:40:58.617Z,29.13
2022-09-11T21:43:25.890Z,26.77
2022-09-11T21:45:52.642Z,29.37
2022-09-11T21:48:19.393Z,28.97
2022-09-11T21:50:45.725Z,28.60
2022-09-11T21:53:12.334Z,31.10
2022-09-11T21:55:42.982Z,30.10
2022-09-11T21:58:14.807Z,28.23
2022-09-11T22:00:43.147Z,28.27
2022-09-11T22:03:11.643Z,28.47
2022-09-11T22:05:45.021Z,29.40
2022-09-11T22:08:14.328Z,29.47
2022-09-11T22:10:46.491Z,27.50
2022-09-11T22:13:13.393Z,28.30
2022-09-11T22:15:41.260Z,29.30
2022-09-11T22:18:07.662Z,29.80
2022-09-11T22:20:34.574Z,24.90
2022-09-11T22:23:00.957Z,25.90
2022-09-11T22:25:27.277Z,28.10
2022-09-11T22:27:53.705Z,26.67
2022-09-11T22:30:20.002Z,30.23
2022-09-11T22:32:46.325Z,25.10
2022-09-11T22:35:14.174Z,26.03
2022-09-11T22:37:40.538Z,27.23
2022-09-11T22:40:07.766Z,27.37
2022-09-11T22:42:34.210Z,27.23
2022-09-11T22:45:00.921Z,25.10
2022-09-11T22:47:27.542Z,26.80
2022-09-11T22:49:53.898Z,25.50
2022-09-11T22:52:20.287Z,26.60
2022-09-11T22:54:47.750Z,26.90
2022-09-11T22:57:14.110Z,27.23
2022-09-11T22:59:40.425Z,25.33
2022-09-11T23:02:06.931Z,27.13
2022-09-11T23:04:33.383Z,26.97
2022-09-11T23:07:15.121Z,26.47
2022-09-11T23:09:41.613Z,24.70
2022-09-11T23:12:07.986Z,25.17
2022-09-11T23:14:34.850Z,26.63
2022-09-11T23:17:01.193Z,25.77
2022-09-11T23:19:28.631Z,25.33
2022-09-11T23:21:55.249Z,25.53
2022-09-11T23:24:21.729Z,24.80
2022-09-11T23:26:48.125Z,24.70
2022-09-11T23:29:14.746Z,24.27
2022-09-11T23:31:41.422Z,24.53
2022-09-11T23:34:08.902Z,22.60
2022-09-11T23:36:36.179Z,23.90
2022-09-11T23:39:03.226Z,24.40
2022-09-11T23:41:29.744Z,24.10
2022-09-11T23:43:56.109Z,24.27
2022-09-11T23:46:22.497Z,24.03
2022-09-11T23:48:49.418Z,23.97
2022-09-11T23:51:16.625Z,23.10
2022-09-11T23:53:44.965Z,22.10
2022-09-11T23:56:14.168Z,22.70
2022-09-11T23:58:41.112Z,23.40
